sensor_id;sensor_type;location;lat;lon;timestamp;P1;durP1;ratioP1;P2;durP2;ratioP2
37047;SDS011;23227;48.780;9.210;2023-02-13T00:02:29;23.03;;;9.77;;
37047;SDS011;23227;48.780;9.210;2023-02-13T00:05:32;19.57;;;9.00;;
37047;SDS011;23227;48.780;9.210;2023-02-13T00:08:34;24.10;;;10.23;;
37047;SDS011;23227;48.780;9.210;2023-02-13T00:11:37;24.33;;;10.10;;
37047;SDS011;23227;48.780;9.210;2023-02-13T00:14:40;27.48;;;10.50;;
37047;SDS011;23227;48.780;9.210;2023-02-13T00:17:44;29.13;;;11.37;;
37047;SDS011;23227;48.780;9.210;2023-02-13T00:20:55;25.87;;;11.20;;
37047;SDS011;23227;48.780;9.210;2023-02-13T00:23:58;27.33;;;11.07;;
37047;SDS011;23227;48.780;9.210;2023-02-13T00:27:01;32.47;;;11.77;;
37047;SDS011;23227;48.780;9.210;2023-02-13T00:30:05;30.70;;;11.52;;
37047;SDS011;23227;48.780;9.210;2023-02-13T00:36:13;29.95;;;10.27;;
37047;SDS011;23227;48.780;9.210;2023-02-13T00:39:17;31.80;;;11.40;;
37047;SDS011;23227;48.780;9.210;2023-02-13T00:42:20;30.97;;;11.83;;
37047;SDS011;23227;48.780;9.210;2023-02-13T00:45:24;31.27;;;10.63;;
37047;SDS011;23227;48.780;9.210;2023-02-13T00:48:29;30.40;;;11.43;;
37047;SDS011;23227;48.780;9.210;2023-02-13T00:51:32;27.23;;;10.33;;
37047;SDS011;23227;48.780;9.210;2023-02-13T00:54:35;32.33;;;11.77;;
37047;SDS011;23227;48.780;9.210;2023-02-13T00:57:38;27.70;;;11.53;;
37047;SDS011;23227;48.780;9.210;2023-02-13T01:00:41;28.20;;;10.43;;
37047;SDS011;23227;48.780;9.210;2023-02-13T01:03:45;30.13;;;10.77;;
37047;SDS011;23227;48.780;9.210;2023-02-13T01:06:48;30.53;;;11.73;;
37047;SDS011;23227;48.780;9.210;2023-02-13T01:09:51;32.40;;;12.27;;
37047;SDS011;23227;48.780;9.210;2023-02-13T01:12:54;31.77;;;12.00;;
37047;SDS011;23227;48.780;9.210;2023-02-13T01:15:56;31.73;;;13.07;;
37047;SDS011;23227;48.780;9.210;2023-02-13T01:19:01;27.00;;;11.33;;
37047;SDS011;23227;48.780;9.210;2023-02-13T01:22:03;30.80;;;12.10;;
37047;SDS011;23227;48.780;9.210;2023-02-13T01:25:06;33.40;;;12.37;;
37047;SDS011;23227;48.780;9.210;2023-02-13T01:28:09;37.10;;;12.35;;
37047;SDS011;23227;48.780;9.210;2023-02-13T01:31:12;37.78;;;12.20;;
37047;SDS011;23227;48.780;9.210;2023-02-13T01:34:41;38.17;;;12.40;;
37047;SDS011;23227;48.780;9.210;2023-02-13T01:37:43;32.60;;;11.30;;
37047;SDS011;23227;48.780;9.210;2023-02-13T01:40:46;35.00;;;12.00;;
37047;SDS011;23227;48.780;9.210;2023-02-13T01:43:51;33.63;;;12.73;;
37047;SDS011;23227;48.780;9.210;2023-02-13T01:46:55;29.87;;;12.40;;
37047;SDS011;23227;48.780;9.210;2023-02-13T01:50:01;31.40;;;13.63;;
37047;SDS011;23227;48.780;9.210;2023-02-13T01:53:08;35.67;;;11.77;;
37047;SDS011;23227;48.780;9.210;2023-02-13T01:56:13;30.83;;;11.87;;
37047;SDS011;23227;48.780;9.210;2023-02-13T01:59:20;30.80;;;12.03;;
37047;SDS011;23227;48.780;9.210;2023-02-13T02:02:26;30.73;;;11.70;;
37047;SDS011;23227;48.780;9.210;2023-02-13T02:05:31;31.00;;;11.80;;
37047;SDS011;23227;48.780;9.210;2023-02-13T02:08:36;38.33;;;11.90;;
37047;SDS011;23227;48.780;9.210;2023-02-13T02:11:40;30.70;;;11.27;;
37047;SDS011;23227;48.780;9.210;2023-02-13T02:14:46;32.37;;;11.40;;
37047;SDS011;23227;48.780;9.210;2023-02-13T02:17:50;29.10;;;12.07;;
37047;SDS011;23227;48.780;9.210;2023-02-13T02:28:25;24.87;;;9.73;;
37047;SDS011;23227;48.780;9.210;2023-02-13T02:32:09;30.53;;;12.47;;
37047;SDS011;23227;48.780;9.210;2023-02-13T02:35:18;30.43;;;11.67;;
37047;SDS011;23227;48.780;9.210;2023-02-13T02:38:28;32.00;;;11.47;;
37047;SDS011;23227;48.780;9.210;2023-02-13T02:41:41;31.90;;;12.17;;
37047;SDS011;23227;48.780;9.210;2023-02-13T02:44:57;30.03;;;10.97;;
37047;SDS011;23227;48.780;9.210;2023-02-13T02:48:11;35.13;;;12.00;;
37047;SDS011;23227;48.780;9.210;2023-02-13T02:51:38;31.53;;;10.67;;
37047;SDS011;23227;48.780;9.210;2023-02-13T02:54:43;32.87;;;10.67;;
37047;SDS011;23227;48.780;9.210;2023-02-13T02:58:07;33.43;;;12.03;;
37047;SDS011;23227;48.780;9.210;2023-02-13T03:01:31;30.83;;;11.27;;
37047;SDS011;23227;48.780;9.210;2023-02-13T03:04:54;30.17;;;11.23;;
37047;SDS011;23227;48.780;9.210;2023-02-13T03:08:30;34.50;;;12.43;;
37047;SDS011;23227;48.780;9.210;2023-02-13T03:11:52;32.17;;;11.97;;
37047;SDS011;23227;48.780;9.210;2023-02-13T03:15:14;32.13;;;11.63;;
37047;SDS011;23227;48.780;9.210;2023-02-13T03:18:17;32.63;;;12.50;;
37047;SDS011;23227;48.780;9.210;2023-02-13T03:21:40;38.37;;;13.07;;
37047;SDS011;23227;48.780;9.210;2023-02-13T03:25:07;43.17;;;13.27;;
37047;SDS011;23227;48.780;9.210;2023-02-13T03:28:15;36.90;;;13.63;;
37047;SDS011;23227;48.780;9.210;2023-02-13T03:31:42;37.70;;;12.13;;
37047;SDS011;23227;48.780;9.210;2023-02-13T03:34:51;34.43;;;11.93;;
37047;SDS011;23227;48.780;9.210;2023-02-13T03:38:19;35.57;;;13.33;;
37047;SDS011;23227;48.780;9.210;2023-02-13T03:41:26;30.83;;;11.07;;
37047;SDS011;23227;48.780;9.210;2023-02-13T03:44:32;31.97;;;12.20;;
37047;SDS011;23227;48.780;9.210;2023-02-13T03:47:37;35.27;;;13.43;;
37047;SDS011;23227;48.780;9.210;2023-02-13T03:50:40;34.53;;;11.73;;
37047;SDS011;23227;48.780;9.210;2023-02-13T03:53:45;35.70;;;13.82;;
37047;SDS011;23227;48.780;9.210;2023-02-13T03:56:51;36.60;;;12.73;;
37047;SDS011;23227;48.780;9.210;2023-02-13T04:00:15;36.13;;;11.97;;
37047;SDS011;23227;48.780;9.210;2023-02-13T04:03:19;28.87;;;11.77;;
37047;SDS011;23227;48.780;9.210;2023-02-13T04:06:26;36.27;;;13.03;;
37047;SDS011;23227;48.780;9.210;2023-02-13T04:09:33;36.53;;;12.37;;
37047;SDS011;23227;48.780;9.210;2023-02-13T04:12:38;30.27;;;10.93;;
37047;SDS011;23227;48.780;9.210;2023-02-13T04:15:44;39.37;;;13.70;;
37047;SDS011;23227;48.780;9.210;2023-02-13T04:18:49;33.97;;;12.87;;
37047;SDS011;23227;48.780;9.210;2023-02-13T04:21:55;35.73;;;13.03;;
37047;SDS011;23227;48.780;9.210;2023-02-13T04:25:00;33.10;;;12.93;;
37047;SDS011;23227;48.780;9.210;2023-02-13T04:28:03;40.10;;;13.87;;
37047;SDS011;23227;48.780;9.210;2023-02-13T04:31:06;36.13;;;13.95;;
37047;SDS011;23227;48.780;9.210;2023-02-13T04:34:09;40.13;;;13.20;;
37047;SDS011;23227;48.780;9.210;2023-02-13T04:37:11;35.27;;;12.73;;
37047;SDS011;23227;48.780;9.210;2023-02-13T04:40:16;33.10;;;12.87;;
37047;SDS011;23227;48.780;9.210;2023-02-13T04:43:19;34.50;;;13.53;;
37047;SDS011;23227;48.780;9.210;2023-02-13T04:46:21;32.97;;;13.00;;
37047;SDS011;23227;48.780;9.210;2023-02-13T04:49:24;36.93;;;12.23;;
37047;SDS011;23227;48.780;9.210;2023-02-13T04:52:27;40.27;;;14.23;;
37047;SDS011;23227;48.780;9.210;2023-02-13T04:55:31;36.27;;;12.43;;
37047;SDS011;23227;48.780;9.210;2023-02-13T04:58:34;36.70;;;13.10;;
37047;SDS011;23227;48.780;9.210;2023-02-13T05:02:01;37.07;;;13.80;;
37047;SDS011;23227;48.780;9.210;2023-02-13T05:05:04;41.97;;;14.73;;
37047;SDS011;23227;48.780;9.210;2023-02-13T05:08:07;38.33;;;13.25;;
37047;SDS011;23227;48.780;9.210;2023-02-13T05:11:12;39.42;;;14.27;;
37047;SDS011;23227;48.780;9.210;2023-02-13T05:14:15;43.50;;;13.80;;
37047;SDS011;23227;48.780;9.210;2023-02-13T05:17:17;39.57;;;13.07;;
37047;SDS011;23227;48.780;9.210;2023-02-13T05:20:20;44.17;;;13.80;;
37047;SDS011;23227;48.780;9.210;2023-02-13T05:23:23;39.13;;;14.03;;
37047;SDS011;23227;48.780;9.210;2023-02-13T05:26:26;31.87;;;11.80;;
37047;SDS011;23227;48.780;9.210;2023-02-13T05:29:29;34.63;;;12.47;;
37047;SDS011;23227;48.780;9.210;2023-02-13T05:32:31;33.30;;;12.63;;
37047;SDS011;23227;48.780;9.210;2023-02-13T05:35:34;31.87;;;12.13;;
37047;SDS011;23227;48.780;9.210;2023-02-13T05:38:37;29.08;;;11.77;;
37047;SDS011;23227;48.780;9.210;2023-02-13T05:41:43;32.53;;;12.37;;
37047;SDS011;23227;48.780;9.210;2023-02-13T05:44:46;31.80;;;11.80;;
37047;SDS011;23227;48.780;9.210;2023-02-13T05:47:49;32.13;;;11.87;;
37047;SDS011;23227;48.780;9.210;2023-02-13T05:50:51;33.27;;;12.33;;
37047;SDS011;23227;48.780;9.210;2023-02-13T05:53:55;34.15;;;12.23;;
37047;SDS011;23227;48.780;9.210;2023-02-13T05:56:59;34.23;;;13.07;;
37047;SDS011;23227;48.780;9.210;2023-02-13T06:00:02;38.77;;;13.00;;
37047;SDS011;23227;48.780;9.210;2023-02-13T06:06:08;28.13;;;11.33;;
37047;SDS011;23227;48.780;9.210;2023-02-13T06:09:11;38.95;;;12.50;;
37047;SDS011;23227;48.780;9.210;2023-02-13T06:12:15;34.60;;;12.15;;
37047;SDS011;23227;48.780;9.210;2023-02-13T06:15:18;36.27;;;13.30;;
37047;SDS011;23227;48.780;9.210;2023-02-13T06:18:21;35.00;;;12.68;;
37047;SDS011;23227;48.780;9.210;2023-02-13T06:21:24;42.08;;;14.48;;
37047;SDS011;23227;48.780;9.210;2023-02-13T06:24:27;31.17;;;12.70;;
37047;SDS011;23227;48.780;9.210;2023-02-13T06:27:31;33.10;;;13.03;;
37047;SDS011;23227;48.780;9.210;2023-02-13T06:30:33;38.63;;;13.73;;
37047;SDS011;23227;48.780;9.210;2023-02-13T06:33:36;42.23;;;14.50;;
37047;SDS011;23227;48.780;9.210;2023-02-13T06:36:39;41.10;;;14.63;;
37047;SDS011;23227;48.780;9.210;2023-02-13T06:39:42;39.80;;;13.20;;
37047;SDS011;23227;48.780;9.210;2023-02-13T06:42:47;36.53;;;13.52;;
37047;SDS011;23227;48.780;9.210;2023-02-13T06:45:49;36.53;;;14.03;;
37047;SDS011;23227;48.780;9.210;2023-02-13T06:48:54;37.93;;;13.60;;
37047;SDS011;23227;48.780;9.210;2023-02-13T06:51:56;44.87;;;14.93;;
37047;SDS011;23227;48.780;9.210;2023-02-13T06:54:59;37.47;;;13.03;;
37047;SDS011;23227;48.780;9.210;2023-02-13T06:58:03;42.03;;;14.73;;
37047;SDS011;23227;48.780;9.210;2023-02-13T07:01:06;36.37;;;12.97;;
37047;SDS011;23227;48.780;9.210;2023-02-13T07:04:09;43.45;;;14.10;;
37047;SDS011;23227;48.780;9.210;2023-02-13T07:07:12;37.57;;;14.83;;
37047;SDS011;23227;48.780;9.210;2023-02-13T07:10:15;42.27;;;14.37;;
37047;SDS011;23227;48.780;9.210;2023-02-13T07:13:22;41.33;;;14.73;;
37047;SDS011;23227;48.780;9.210;2023-02-13T07:16:25;45.13;;;15.23;;
37047;SDS011;23227;48.780;9.210;2023-02-13T07:19:27;40.67;;;14.93;;
37047;SDS011;23227;48.780;9.210;2023-02-13T07:22:30;36.60;;;13.40;;
37047;SDS011;23227;48.780;9.210;2023-02-13T07:25:33;44.17;;;15.70;;
37047;SDS011;23227;48.780;9.210;2023-02-13T07:28:37;39.22;;;14.27;;
37047;SDS011;23227;48.780;9.210;2023-02-13T07:31:40;39.77;;;14.70;;
37047;SDS011;23227;48.780;9.210;2023-02-13T07:34:43;38.10;;;14.53;;
37047;SDS011;23227;48.780;9.210;2023-02-13T07:38:01;37.27;;;13.70;;
37047;SDS011;23227;48.780;9.210;2023-02-13T07:41:04;39.97;;;14.57;;
37047;SDS011;23227;48.780;9.210;2023-02-13T07:44:08;42.00;;;15.83;;
37047;SDS011;23227;48.780;9.210;2023-02-13T07:47:11;41.43;;;15.07;;
37047;SDS011;23227;48.780;9.210;2023-02-13T07:50:14;36.60;;;14.53;;
37047;SDS011;23227;48.780;9.210;2023-02-13T07:53:16;38.57;;;15.30;;
37047;SDS011;23227;48.780;9.210;2023-02-13T07:56:19;41.73;;;15.23;;
37047;SDS011;23227;48.780;9.210;2023-02-13T07:59:23;42.27;;;15.47;;
37047;SDS011;23227;48.780;9.210;2023-02-13T08:02:26;44.67;;;18.50;;
37047;SDS011;23227;48.780;9.210;2023-02-13T08:05:29;49.20;;;18.30;;
37047;SDS011;23227;48.780;9.210;2023-02-13T08:08:32;44.15;;;16.90;;
37047;SDS011;23227;48.780;9.210;2023-02-13T08:11:35;45.20;;;17.73;;
37047;SDS011;23227;48.780;9.210;2023-02-13T08:14:56;39.03;;;15.00;;
37047;SDS011;23227;48.780;9.210;2023-02-13T08:17:59;40.67;;;15.43;;
37047;SDS011;23227;48.780;9.210;2023-02-13T08:21:02;34.57;;;14.67;;
37047;SDS011;23227;48.780;9.210;2023-02-13T08:24:05;36.85;;;15.57;;
37047;SDS011;23227;48.780;9.210;2023-02-13T08:27:10;38.08;;;14.07;;
37047;SDS011;23227;48.780;9.210;2023-02-13T08:30:15;41.30;;;16.27;;
37047;SDS011;23227;48.780;9.210;2023-02-13T08:33:18;37.87;;;13.90;;
37047;SDS011;23227;48.780;9.210;2023-02-13T08:36:20;36.63;;;15.23;;
37047;SDS011;23227;48.780;9.210;2023-02-13T08:39:23;42.50;;;14.83;;
37047;SDS011;23227;48.780;9.210;2023-02-13T08:42:26;31.67;;;13.80;;
37047;SDS011;23227;48.780;9.210;2023-02-13T08:45:30;33.40;;;12.90;;
37047;SDS011;23227;48.780;9.210;2023-02-13T08:48:33;31.00;;;14.30;;
37047;SDS011;23227;48.780;9.210;2023-02-13T08:51:36;27.67;;;13.67;;
37047;SDS011;23227;48.780;9.210;2023-02-13T08:54:39;34.10;;;12.90;;
37047;SDS011;23227;48.780;9.210;2023-02-13T08:57:42;45.87;;;19.10;;
37047;SDS011;23227;48.780;9.210;2023-02-13T09:00:46;32.73;;;15.00;;
37047;SDS011;23227;48.780;9.210;2023-02-13T09:06:51;30.70;;;12.87;;
37047;SDS011;23227;48.780;9.210;2023-02-13T09:09:54;26.83;;;12.03;;
37047;SDS011;23227;48.780;9.210;2023-02-13T09:12:56;26.40;;;11.57;;
37047;SDS011;23227;48.780;9.210;2023-02-13T09:16:01;27.27;;;12.40;;
37047;SDS011;23227;48.780;9.210;2023-02-13T09:19:07;28.37;;;12.03;;
37047;SDS011;23227;48.780;9.210;2023-02-13T09:22:10;24.23;;;11.43;;
37047;SDS011;23227;48.780;9.210;2023-02-13T09:25:12;26.27;;;11.77;;
37047;SDS011;23227;48.780;9.210;2023-02-13T09:28:15;21.15;;;11.90;;
37047;SDS011;23227;48.780;9.210;2023-02-13T09:31:20;23.33;;;10.83;;
37047;SDS011;23227;48.780;9.210;2023-02-13T09:34:24;31.83;;;13.30;;
37047;SDS011;23227;48.780;9.210;2023-02-13T09:37:27;18.80;;;9.27;;
37047;SDS011;23227;48.780;9.210;2023-02-13T09:40:30;22.63;;;10.47;;
37047;SDS011;23227;48.780;9.210;2023-02-13T09:43:39;20.67;;;9.50;;
37047;SDS011;23227;48.780;9.210;2023-02-13T09:46:47;16.67;;;8.13;;
37047;SDS011;23227;48.780;9.210;2023-02-13T09:49:50;13.80;;;7.80;;
37047;SDS011;23227;48.780;9.210;2023-02-13T09:52:55;15.47;;;8.23;;
37047;SDS011;23227;48.780;9.210;2023-02-13T09:56:00;14.75;;;8.15;;
37047;SDS011;23227;48.780;9.210;2023-02-13T09:59:11;17.40;;;8.00;;
37047;SDS011;23227;48.780;9.210;2023-02-13T10:02:30;18.30;;;9.07;;
37047;SDS011;23227;48.780;9.210;2023-02-13T10:05:50;15.80;;;8.40;;
37047;SDS011;23227;48.780;9.210;2023-02-13T10:09:00;16.17;;;8.27;;
37047;SDS011;23227;48.780;9.210;2023-02-13T10:12:21;15.50;;;8.47;;
37047;SDS011;23227;48.780;9.210;2023-02-13T10:15:33;17.23;;;9.23;;
37047;SDS011;23227;48.780;9.210;2023-02-13T10:18:44;17.70;;;8.13;;
37047;SDS011;23227;48.780;9.210;2023-02-13T10:21:50;18.27;;;9.87;;
37047;SDS011;23227;48.780;9.210;2023-02-13T10:24:55;18.13;;;8.57;;
37047;SDS011;23227;48.780;9.210;2023-02-13T10:27:59;14.83;;;7.80;;
37047;SDS011;23227;48.780;9.210;2023-02-13T10:31:06;19.40;;;8.53;;
37047;SDS011;23227;48.780;9.210;2023-02-13T10:34:14;17.60;;;7.73;;
37047;SDS011;23227;48.780;9.210;2023-02-13T10:37:19;22.37;;;9.40;;
37047;SDS011;23227;48.780;9.210;2023-02-13T10:40:23;15.33;;;7.53;;
37047;SDS011;23227;48.780;9.210;2023-02-13T10:43:37;10.90;;;6.57;;
37047;SDS011;23227;48.780;9.210;2023-02-13T10:46:43;12.90;;;7.03;;
37047;SDS011;23227;48.780;9.210;2023-02-13T10:49:57;14.77;;;7.67;;
37047;SDS011;23227;48.780;9.210;2023-02-13T10:53:08;12.87;;;7.00;;
37047;SDS011;23227;48.780;9.210;2023-02-13T10:56:17;13.30;;;7.33;;
37047;SDS011;23227;48.780;9.210;2023-02-13T10:59:34;14.17;;;8.03;;
37047;SDS011;23227;48.780;9.210;2023-02-13T11:02:43;19.20;;;6.63;;
37047;SDS011;23227;48.780;9.210;2023-02-13T11:05:47;11.50;;;6.40;;
37047;SDS011;23227;48.780;9.210;2023-02-13T11:08:50;10.77;;;6.47;;
37047;SDS011;23227;48.780;9.210;2023-02-13T11:11:53;12.47;;;6.63;;
37047;SDS011;23227;48.780;9.210;2023-02-13T11:14:56;12.47;;;6.40;;
37047;SDS011;23227;48.780;9.210;2023-02-13T11:18:01;11.20;;;6.30;;
37047;SDS011;23227;48.780;9.210;2023-02-13T11:21:13;13.33;;;6.67;;
37047;SDS011;23227;48.780;9.210;2023-02-13T11:24:19;10.53;;;5.53;;
37047;SDS011;23227;48.780;9.210;2023-02-13T11:27:26;8.47;;;5.77;;
37047;SDS011;23227;48.780;9.210;2023-02-13T11:30:31;10.37;;;5.90;;
37047;SDS011;23227;48.780;9.210;2023-02-13T11:33:35;10.60;;;5.97;;
37047;SDS011;23227;48.780;9.210;2023-02-13T11:36:39;9.13;;;5.85;;
37047;SDS011;23227;48.780;9.210;2023-02-13T11:39:43;10.67;;;5.87;;
37047;SDS011;23227;48.780;9.210;2023-02-13T11:45:58;9.90;;;5.10;;
37047;SDS011;23227;48.780;9.210;2023-02-13T11:49:03;10.20;;;5.37;;
37047;SDS011;23227;48.780;9.210;2023-02-13T11:52:09;12.40;;;5.47;;
37047;SDS011;23227;48.780;9.210;2023-02-13T11:55:29;10.90;;;5.80;;
37047;SDS011;23227;48.780;9.210;2023-02-13T11:58:33;9.13;;;5.57;;
37047;SDS011;23227;48.780;9.210;2023-02-13T12:01:36;10.80;;;5.88;;
37047;SDS011;23227;48.780;9.210;2023-02-13T12:04:39;8.57;;;5.17;;
37047;SDS011;23227;48.780;9.210;2023-02-13T12:10:47;9.73;;;5.33;;
37047;SDS011;23227;48.780;9.210;2023-02-13T12:13:50;14.05;;;6.13;;
37047;SDS011;23227;48.780;9.210;2023-02-13T12:16:53;19.90;;;6.97;;
37047;SDS011;23227;48.780;9.210;2023-02-13T12:19:58;10.33;;;6.03;;
37047;SDS011;23227;48.780;9.210;2023-02-13T12:23:03;11.43;;;6.57;;
37047;SDS011;23227;48.780;9.210;2023-02-13T12:26:11;15.33;;;7.47;;
37047;SDS011;23227;48.780;9.210;2023-02-13T12:29:34;12.70;;;6.53;;
37047;SDS011;23227;48.780;9.210;2023-02-13T12:32:50;10.60;;;5.90;;
37047;SDS011;23227;48.780;9.210;2023-02-13T12:35:59;8.87;;;5.80;;
37047;SDS011;23227;48.780;9.210;2023-02-13T12:39:08;10.83;;;6.40;;
37047;SDS011;23227;48.780;9.210;2023-02-13T12:42:21;9.63;;;6.03;;
37047;SDS011;23227;48.780;9.210;2023-02-13T12:45:30;12.07;;;6.40;;
37047;SDS011;23227;48.780;9.210;2023-02-13T12:48:37;10.43;;;6.97;;
37047;SDS011;23227;48.780;9.210;2023-02-13T12:51:44;10.43;;;6.60;;
37047;SDS011;23227;48.780;9.210;2023-02-13T12:54:57;12.80;;;6.57;;
37047;SDS011;23227;48.780;9.210;2023-02-13T12:58:11;13.20;;;6.47;;
37047;SDS011;23227;48.780;9.210;2023-02-13T13:01:39;10.87;;;5.80;;
37047;SDS011;23227;48.780;9.210;2023-02-13T13:04:52;13.37;;;6.50;;
37047;SDS011;23227;48.780;9.210;2023-02-13T13:08:04;11.30;;;6.53;;
37047;SDS011;23227;48.780;9.210;2023-02-13T13:11:17;11.47;;;6.27;;
37047;SDS011;23227;48.780;9.210;2023-02-13T13:14:30;9.80;;;5.43;;
37047;SDS011;23227;48.780;9.210;2023-02-13T13:17:42;9.97;;;5.57;;
37047;SDS011;23227;48.780;9.210;2023-02-13T13:20:57;9.17;;;6.00;;
37047;SDS011;23227;48.780;9.210;2023-02-13T13:24:04;9.77;;;5.47;;
37047;SDS011;23227;48.780;9.210;2023-02-13T13:27:16;10.40;;;6.00;;
37047;SDS011;23227;48.780;9.210;2023-02-13T13:30:20;14.80;;;5.73;;
37047;SDS011;23227;48.780;9.210;2023-02-13T13:33:26;8.17;;;5.27;;
37047;SDS011;23227;48.780;9.210;2023-02-13T13:36:32;8.07;;;5.03;;
37047;SDS011;23227;48.780;9.210;2023-02-13T13:39:40;11.20;;;4.97;;
37047;SDS011;23227;48.780;9.210;2023-02-13T13:42:50;8.17;;;5.47;;
37047;SDS011;23227;48.780;9.210;2023-02-13T13:45:57;9.93;;;6.17;;
37047;SDS011;23227;48.780;9.210;2023-02-13T13:49:11;14.65;;;7.82;;
37047;SDS011;23227;48.780;9.210;2023-02-13T13:52:21;8.57;;;5.70;;
37047;SDS011;23227;48.780;9.210;2023-02-13T13:59:07;8.97;;;5.97;;
37047;SDS011;23227;48.780;9.210;2023-02-13T14:02:25;10.00;;;5.57;;
37047;SDS011;23227;48.780;9.210;2023-02-13T14:05:55;7.73;;;4.93;;
37047;SDS011;23227;48.780;9.210;2023-02-13T14:09:01;8.80;;;5.67;;
37047;SDS011;23227;48.780;9.210;2023-02-13T14:12:35;7.67;;;5.47;;
37047;SDS011;23227;48.780;9.210;2023-02-13T14:15:51;7.80;;;5.00;;
37047;SDS011;23227;48.780;9.210;2023-02-13T14:18:55;7.70;;;5.50;;
37047;SDS011;23227;48.780;9.210;2023-02-13T14:25:32;8.37;;;6.03;;
37047;SDS011;23227;48.780;9.210;2023-02-13T14:28:35;9.02;;;5.85;;
37047;SDS011;23227;48.780;9.210;2023-02-13T14:31:40;11.10;;;7.13;;
37047;SDS011;23227;48.780;9.210;2023-02-13T14:34:50;10.30;;;6.13;;
37047;SDS011;23227;48.780;9.210;2023-02-13T14:37:54;14.80;;;6.17;;
37047;SDS011;23227;48.780;9.210;2023-02-13T14:40:59;13.13;;;5.60;;
37047;SDS011;23227;48.780;9.210;2023-02-13T14:44:03;10.73;;;5.40;;
37047;SDS011;23227;48.780;9.210;2023-02-13T14:47:13;9.55;;;5.68;;
37047;SDS011;23227;48.780;9.210;2023-02-13T14:50:22;9.37;;;5.33;;
37047;SDS011;23227;48.780;9.210;2023-02-13T14:53:28;10.60;;;6.30;;
37047;SDS011;23227;48.780;9.210;2023-02-13T14:56:32;10.73;;;5.63;;
37047;SDS011;23227;48.780;9.210;2023-02-13T14:59:35;12.73;;;5.55;;
37047;SDS011;23227;48.780;9.210;2023-02-13T15:02:43;12.30;;;6.10;;
37047;SDS011;23227;48.780;9.210;2023-02-13T15:05:49;14.57;;;6.03;;
37047;SDS011;23227;48.780;9.210;2023-02-13T15:08:53;15.17;;;6.67;;
37047;SDS011;23227;48.780;9.210;2023-02-13T15:11:56;10.77;;;6.10;;
37047;SDS011;23227;48.780;9.210;2023-02-13T15:14:59;7.85;;;5.30;;
37047;SDS011;23227;48.780;9.210;2023-02-13T15:21:10;12.80;;;6.20;;
37047;SDS011;23227;48.780;9.210;2023-02-13T15:24:16;9.90;;;6.20;;
37047;SDS011;23227;48.780;9.210;2023-02-13T15:27:20;9.95;;;5.80;;
37047;SDS011;23227;48.780;9.210;2023-02-13T15:30:27;9.23;;;5.40;;
37047;SDS011;23227;48.780;9.210;2023-02-13T15:33:33;8.57;;;4.97;;
37047;SDS011;23227;48.780;9.210;2023-02-13T15:36:43;9.30;;;4.97;;
37047;SDS011;23227;48.780;9.210;2023-02-13T15:39:46;7.90;;;4.72;;
37047;SDS011;23227;48.780;9.210;2023-02-13T15:42:49;8.65;;;5.13;;
37047;SDS011;23227;48.780;9.210;2023-02-13T15:45:52;11.07;;;5.47;;
37047;SDS011;23227;48.780;9.210;2023-02-13T15:48:58;8.88;;;5.00;;
37047;SDS011;23227;48.780;9.210;2023-02-13T15:52:03;11.77;;;4.90;;
37047;SDS011;23227;48.780;9.210;2023-02-13T15:55:13;8.00;;;5.30;;
37047;SDS011;23227;48.780;9.210;2023-02-13T15:58:19;8.73;;;5.37;;
37047;SDS011;23227;48.780;9.210;2023-02-13T16:01:22;9.43;;;5.32;;
37047;SDS011;23227;48.780;9.210;2023-02-13T16:04:27;12.90;;;6.10;;
37047;SDS011;23227;48.780;9.210;2023-02-13T16:07:30;10.93;;;5.33;;
37047;SDS011;23227;48.780;9.210;2023-02-13T16:10:48;11.80;;;6.33;;
37047;SDS011;23227;48.780;9.210;2023-02-13T16:13:59;9.43;;;5.57;;
37047;SDS011;23227;48.780;9.210;2023-02-13T16:17:05;9.68;;;5.28;;
37047;SDS011;23227;48.780;9.210;2023-02-13T16:20:15;11.07;;;5.80;;
37047;SDS011;23227;48.780;9.210;2023-02-13T16:23:21;13.57;;;5.67;;
37047;SDS011;23227;48.780;9.210;2023-02-13T16:26:24;11.02;;;5.68;;
37047;SDS011;23227;48.780;9.210;2023-02-13T16:29:27;9.67;;;6.20;;
37047;SDS011;23227;48.780;9.210;2023-02-13T16:32:31;10.05;;;5.55;;
37047;SDS011;23227;48.780;9.210;2023-02-13T16:35:36;10.30;;;5.80;;
37047;SDS011;23227;48.780;9.210;2023-02-13T16:38:43;11.23;;;6.10;;
37047;SDS011;23227;48.780;9.210;2023-02-13T16:44:49;11.20;;;5.63;;
37047;SDS011;23227;48.780;9.210;2023-02-13T16:47:57;12.73;;;5.75;;
37047;SDS011;23227;48.780;9.210;2023-02-13T16:51:04;14.40;;;6.73;;
37047;SDS011;23227;48.780;9.210;2023-02-13T16:54:14;12.40;;;6.40;;
37047;SDS011;23227;48.780;9.210;2023-02-13T16:57:20;12.33;;;6.70;;
37047;SDS011;23227;48.780;9.210;2023-02-13T17:00:25;12.93;;;6.37;;
37047;SDS011;23227;48.780;9.210;2023-02-13T17:03:28;13.32;;;7.78;;
37047;SDS011;23227;48.780;9.210;2023-02-13T17:06:34;13.00;;;7.27;;
37047;SDS011;23227;48.780;9.210;2023-02-13T17:09:37;13.07;;;6.80;;
37047;SDS011;23227;48.780;9.210;2023-02-13T17:12:40;16.13;;;7.17;;
37047;SDS011;23227;48.780;9.210;2023-02-13T17:15:43;12.10;;;6.37;;
37047;SDS011;23227;48.780;9.210;2023-02-13T17:18:46;20.17;;;8.77;;
37047;SDS011;23227;48.780;9.210;2023-02-13T17:21:52;22.43;;;8.87;;
37047;SDS011;23227;48.780;9.210;2023-02-13T17:24:56;18.13;;;8.83;;
37047;SDS011;23227;48.780;9.210;2023-02-13T17:27:59;15.82;;;8.18;;
37047;SDS011;23227;48.780;9.210;2023-02-13T17:31:03;17.80;;;7.87;;
37047;SDS011;23227;48.780;9.210;2023-02-13T17:34:11;37.07;;;12.67;;
37047;SDS011;23227;48.780;9.210;2023-02-13T17:37:20;32.13;;;12.18;;
37047;SDS011;23227;48.780;9.210;2023-02-13T17:40:24;28.50;;;10.90;;
37047;SDS011;23227;48.780;9.210;2023-02-13T17:43:29;32.97;;;12.20;;
37047;SDS011;23227;48.780;9.210;2023-02-13T17:46:32;22.80;;;10.18;;
37047;SDS011;23227;48.780;9.210;2023-02-13T17:49:35;27.53;;;12.00;;
37047;SDS011;23227;48.780;9.210;2023-02-13T17:52:39;26.67;;;11.93;;
37047;SDS011;23227;48.780;9.210;2023-02-13T17:55:42;21.53;;;9.60;;
37047;SDS011;23227;48.780;9.210;2023-02-13T17:58:45;15.97;;;8.60;;
37047;SDS011;23227;48.780;9.210;2023-02-13T18:01:48;14.98;;;8.02;;
37047;SDS011;23227;48.780;9.210;2023-02-13T18:04:51;21.88;;;10.05;;
37047;SDS011;23227;48.780;9.210;2023-02-13T18:07:55;17.60;;;9.30;;
37047;SDS011;23227;48.780;9.210;2023-02-13T18:10:58;19.57;;;7.70;;
37047;SDS011;23227;48.780;9.210;2023-02-13T18:14:01;20.00;;;9.48;;
37047;SDS011;23227;48.780;9.210;2023-02-13T18:17:03;16.23;;;9.03;;
37047;SDS011;23227;48.780;9.210;2023-02-13T18:20:06;18.97;;;9.03;;
37047;SDS011;23227;48.780;9.210;2023-02-13T18:23:12;19.30;;;9.03;;
37047;SDS011;23227;48.780;9.210;2023-02-13T18:26:15;19.97;;;8.90;;
37047;SDS011;23227;48.780;9.210;2023-02-13T18:29:17;24.67;;;10.80;;
37047;SDS011;23227;48.780;9.210;2023-02-13T18:32:20;21.67;;;9.50;;
37047;SDS011;23227;48.780;9.210;2023-02-13T18:35:23;23.70;;;11.02;;
37047;SDS011;23227;48.780;9.210;2023-02-13T18:38:28;21.42;;;10.55;;
37047;SDS011;23227;48.780;9.210;2023-02-13T18:41:31;20.73;;;9.50;;
37047;SDS011;23227;48.780;9.210;2023-02-13T18:44:33;21.40;;;10.00;;
37047;SDS011;23227;48.780;9.210;2023-02-13T18:47:36;20.50;;;10.43;;
37047;SDS011;23227;48.780;9.210;2023-02-13T18:50:39;22.30;;;10.33;;
37047;SDS011;23227;48.780;9.210;2023-02-13T18:53:44;26.50;;;11.68;;
37047;SDS011;23227;48.780;9.210;2023-02-13T18:56:46;24.00;;;10.33;;